View from home
Forecast from Yr Norsk

 

Here is the weather forecast for Austad/Fjell. First a detailed graph showing the forecast hour-by-hour. Then follows a forecast for the next 10 days.All forecasts are updated regulary.

Weather forecast is built on data from yr.no, delivered by Norwegian Meteorological Institute and NRK.

NB: The units in the first chart are metrical!

 

Meteogram for Austad/Fjell

 

Date
Time
Fc
Precip
Temp
Hum
Wind (gust)
 
Press
2022.07.01 18:00 PartlyCloud 78.8°F 51.9% From south-southeast 4.5mph (19.0mph) 1,009.8hPa
  19:00 LightCloud 78.1°F 56.0% From southeast 7.4mph (17.2mph) 1,010.0hPa
  20:00 Sun 75.7°F 60.7% From southeast 8.1mph (19.5mph) 1,010.6hPa
  21:00 Sun 73.0°F 64.8% From southeast 5.6mph (18.1mph) 1,010.8hPa
  22:00 LightCloud 70.3°F 70.0% From east 2.0mph (12.3mph) 1,010.4hPa
  23:00 LightCloud 68.5°F 73.8% From southeast 4.0mph (8.9mph) 1,011.1hPa
  00:00 Cloud 66.4°F 83.2% From southeast 4.7mph (10.7mph) 1,011.3hPa
2022.07.02 01:00 Cloud 65.1°F 86.6% From southeast 3.4mph (10.1mph) 1,011.2hPa
  02:00 LightRain 0.00 - 0.05 in 64.4°F 88.9% From southeast 3.4mph (8.3mph) 1,010.8hPa
  03:00 Rain 0.00 - 0.06 in 62.8°F 95.1% From southeast 4.5mph (10.3mph) 1,010.7hPa
  04:00 LightRain 0.00 - 0.15 in 62.4°F 95.5% From south-southeast 4.0mph (9.6mph) 1,010.3hPa
  05:00 Rain 0.00 - 0.32 in 62.1°F 93.8% From south-southwest 6.5mph (15.7mph) 1,010.1hPa
  06:00 Rain 0.00 - 0.26 in 61.0°F 94.0% From south 5.1mph (13.6mph) 1,010.1hPa
  07:00 Drizzle 0.00 - 0.15 in 60.4°F 93.6% From south 4.5mph (11.4mph) 1,010.2hPa
  08:00 Cloud 0.00 - 0.10 in 61.3°F 91.2% From south 4.9mph (11.4mph) 1,010.2hPa
  09:00 Cloud 0.00 - 0.04 in 64.4°F 78.0% From south-southwest 4.9mph (12.8mph) 1,010.5hPa
  10:00 PartlyCloud 66.6°F 61.9% From southwest 6.7mph (16.8mph) 1,010.8hPa
  11:00 PartlyCloud 68.4°F 49.7% From southwest 7.8mph (19.9mph) 1,011.2hPa
  12:00 Sun 70.0°F 42.1% From southwest 8.3mph (21.5mph) 1,011.6hPa
  13:00 Sun 71.8°F 40.7% From south-southwest 8.3mph (21.9mph) 1,011.9hPa
  14:00 Sun 73.0°F 38.5% From south-southwest 8.9mph (22.8mph) 1,012.1hPa
  15:00 Sun 72.7°F 41.5% From south-southwest 9.8mph (23.9mph) 1,012.4hPa
  16:00 LightCloud 72.9°F 40.3% From southwest 9.6mph (23.9mph) 1,012.9hPa
  17:00 LightCloud 72.7°F 40.5% From south-southwest 9.6mph (23.5mph) 1,013.2hPa
  18:00 LightCloud 72.0°F 42.2% From south-southwest 9.6mph (23.3mph) 1,013.5hPa
  19:00 LightCloud 71.1°F 43.8% From south-southwest 9.4mph (23.0mph) 1,013.7hPa
  20:00 Sun 68.5°F 54.7% From south-southwest 11.2mph (25.3mph) 1,014.0hPa
  21:00 Sun 67.1°F 54.1% From south-southwest 8.5mph (24.6mph) 1,014.3hPa
  22:00 Sun 64.6°F 62.7% From south 7.4mph (18.6mph) 1,014.7hPa
  23:00 Sun 62.2°F 68.9% From south 6.5mph (16.1mph) 1,015.1hPa
  00:00 LightCloud 60.4°F 73.6% From south 6.3mph (14.1mph) 1,015.5hPa
2022.07.03 01:00 LightCloud 58.8°F 78.6% From south 5.8mph (14.5mph) 1,015.6hPa
  02:00 PartlyCloud 57.4°F 87.5% From south 6.0mph (13.4mph) 1,015.8hPa
  03:00 LightCloud 57.6°F 87.5% From south 5.6mph (13.2mph) 1,015.4hPa
  04:00 PartlyCloud 56.7°F 86.4% From south-southeast 4.3mph (12.3mph) 1,015.1hPa
  05:00 LightCloud 0.00 - 0.01 in 56.1°F 83.5% From south 5.1mph (11.2mph) 1,015.2hPa
  06:00 LightCloud 0.00 - 0.02 in 56.7°F 80.0% From south 6.3mph (14.3mph) 1,015.2hPa
  07:00 PartlyCloud 0.00 - 0.03 in 57.7°F 79.4% From south 7.2mph (16.1mph) 1,015.2hPa
  08:00 Cloud 0.00 - 0.02 in 57.2°F 84.8% From south-southeast 6.5mph (17.9mph) 1,014.9hPa
  09:00 Cloud 0.00 - 0.04 in 59.0°F 82.2% From south-southeast 7.4mph (17.0mph) 1,014.9hPa
  10:00 Cloud 0.00 - 0.02 in 59.5°F 74.1% From south 8.3mph (19.7mph) 1,014.9hPa
  11:00 Cloud 0.00 - 0.02 in 61.2°F 68.4% From south 8.5mph (19.9mph) 1,014.6hPa
  12:00 Cloud 0.00 - 0.02 in 62.6°F 62.2% From south 9.8mph (23.0mph) 1,014.3hPa
  13:00 Cloud 0.00 - 0.09 in 60.8°F 77.6% From south-southeast 10.3mph (25.1mph) 1,014.7hPa
  14:00 Cloud 0.00 - 0.03 in 61.7°F 73.8% From south 10.1mph (23.7mph) 1,014.5hPa
  15:00 Cloud 0.00 - 0.01 in 63.7°F 70.6% From south 11.2mph (25.9mph) 1,014.4hPa
  16:00 PartlyCloud 0.00 - 0.01 in 64.6°F 68.9% From south 11.4mph (28.6mph) 1,014.2hPa
  17:00 PartlyCloud 63.9°F 69.6% From south 11.0mph (26.6mph) 1,013.9hPa
  18:00 PartlyCloud 65.1°F 66.4% From south 11.4mph (26.8mph) 1,013.4hPa
  19:00 PartlyCloud 64.9°F 65.1% From south 10.5mph (26.4mph) 1,013.3hPa
  20:00 PartlyCloud 64.2°F 64.8% From south 9.4mph (24.4mph) 1,013.1hPa
  02:00 PartlyCloud 57.0°F 95.2% From south 3.8mph ( mph) 1,011.3hPa
2022.07.04 08:00 PartlyCloud 60.6°F 79.3% From south 3.1mph ( mph) 1,010.7hPa
  14:00 LightRainSun 0.00 - 0.09 in 61.5°F 70.2% From south 9.2mph ( mph) 1,009.8hPa
  20:00 LightRain 0.00 - 0.18 in 62.6°F 75.2% From south 6.9mph ( mph) 1,007.4hPa
  02:00 PartlyCloud 55.4°F 88.9% From south-southwest 4.5mph ( mph) 1,007.9hPa
2022.07.05 08:00 LightCloud 59.2°F 70.4% From west 5.4mph ( mph) 1,008.2hPa
  14:00 LightCloud 65.8°F 44.7% From west-southwest 6.3mph ( mph) 1,007.8hPa
  20:00 Cloud 66.2°F 51.6% From west-northwest 5.6mph ( mph) 1,007.5hPa
  02:00 PartlyCloud 55.2°F 65.2% From west-northwest 6.9mph ( mph) 1,010.4hPa
2022.07.06 08:00 LightCloud 58.1°F 57.7% From northwest 6.7mph ( mph) 1,011.3hPa
  14:00 LightCloud 63.3°F 43.9% From northwest 5.8mph ( mph) 1,011.6hPa
  20:00 Cloud 64.8°F 48.2% From northwest 5.4mph ( mph) 1,012.1hPa
  02:00 PartlyCloud 54.5°F 66.9% From northwest 6.3mph ( mph) 1,015.0hPa
2022.07.07 08:00 LightCloud 58.3°F 60.9% From northwest 6.3mph ( mph) 1,016.3hPa
  14:00 LightCloud 65.3°F 44.8% From west-northwest 5.4mph ( mph) 1,016.3hPa
  20:00 Cloud 66.7°F 50.5% From southeast 4.9mph ( mph) 1,014.9hPa
  02:00 LightCloud 56.1°F 76.2% From west-northwest 3.8mph ( mph) 1,016.1hPa
2022.07.08 08:00 LightCloud 60.1°F 70.7% From west-southwest 3.8mph ( mph) 1,016.1hPa
  14:00 Cloud 68.0°F 44.5% From west 5.4mph ( mph) 1,014.8hPa
  20:00 Cloud 68.0°F 52.1% From south-southeast 4.9mph ( mph) 1,012.4hPa
  02:00 LightCloud 58.3°F 71.5% From west-northwest 4.9mph ( mph) 1,014.6hPa
2022.07.09 08:00 LightCloud 60.4°F 63.5% From northwest 6.0mph ( mph) 1,015.0hPa
  14:00 Sun 67.6°F 42.4% From west-northwest 6.5mph ( mph) 1,014.1hPa
  20:00 Cloud 68.9°F 50.6% From south-southeast 5.8mph ( mph) 1,014.7hPa
  02:00 LightCloud 58.5°F 72.4% From west-northwest 4.0mph ( mph) 1,012.4hPa
2022.07.10 08:00 LightCloud 60.4°F 62.2% From northwest 5.4mph ( mph) 1,013.2hPa
  14:00 LightCloud 66.7°F 45.7% From west-southwest 5.8mph ( mph) 1,013.6hPa
  20:00 Cloud 68.0°F 57.2% From south-southeast 6.0mph ( mph) 1,014.8hPa
Facebook Facebook Messenger Instagram E-mail